createdAt,value
2018-12-02T00:00:29.109Z,50.83
2018-12-02T00:01:00.716Z,50.89
2018-12-02T00:01:32.314Z,50.84
2018-12-02T00:02:03.915Z,50.81
2018-12-02T00:02:35.514Z,50.83
2018-12-02T00:03:07.130Z,50.96
2018-12-02T00:03:38.720Z,50.94
2018-12-02T00:04:10.320Z,50.80
2018-12-02T00:04:41.904Z,50.81
2018-12-02T00:05:13.508Z,50.87
2018-12-02T00:05:45.145Z,50.74
2018-12-02T00:06:16.737Z,50.81
2018-12-02T00:06:48.348Z,50.93
2018-12-02T00:07:19.949Z,50.93
2018-12-02T00:07:51.557Z,50.92
2018-12-02T00:08:23.152Z,51.03
2018-12-02T00:08:54.736Z,50.92
2018-12-02T00:09:26.369Z,50.93
2018-12-02T00:09:57.962Z,51.01
2018-12-02T00:10:29.553Z,51.08
2018-12-02T00:11:01.137Z,51.08
2018-12-02T00:11:32.730Z,51.12
2018-12-02T00:12:04.348Z,51.10
2018-12-02T00:12:35.952Z,51.15
2018-12-02T00:13:07.560Z,51.05
2018-12-02T00:13:39.154Z,51.12
2018-12-02T00:14:10.736Z,51.12
2018-12-02T00:14:42.334Z,51.09
2018-12-02T00:15:13.944Z,51.13
2018-12-02T00:15:45.593Z,51.15
2018-12-02T00:16:17.195Z,51.16
2018-12-02T00:16:48.808Z,51.12
2018-12-02T00:17:20.440Z,51.17
2018-12-02T00:17:52.048Z,51.24
2018-12-02T00:18:23.645Z,51.16
2018-12-02T00:18:55.248Z,51.14
2018-12-02T00:19:26.837Z,51.25
2018-12-02T00:19:58.430Z,51.21
2018-12-02T00:20:30.076Z,51.22
2018-12-02T00:21:01.671Z,51.28
2018-12-02T00:21:33.283Z,51.32
2018-12-02T00:22:04.878Z,51.31
2018-12-02T00:22:36.470Z,51.28
2018-12-02T00:23:08.065Z,51.29
2018-12-02T00:23:39.663Z,51.30
2018-12-02T00:24:11.262Z,51.40
2018-12-02T00:24:42.885Z,51.37
2018-12-02T00:25:14.478Z,51.35
2018-12-02T00:25:46.074Z,51.45
2018-12-02T00:26:17.666Z,51.32
2018-12-02T00:26:49.269Z,51.43
2018-12-02T00:27:20.871Z,51.48
2018-12-02T00:27:52.476Z,51.40
2018-12-02T00:28:24.106Z,51.37
2018-12-02T00:28:55.749Z,51.45
2018-12-02T00:29:27.351Z,51.43
2018-12-02T00:29:59.000Z,51.44
2018-12-02T00:30:30.594Z,51.44
2018-12-02T00:31:02.186Z,51.50
2018-12-02T00:31:33.831Z,51.43
2018-12-02T00:32:05.713Z,51.49
2018-12-02T00:32:37.301Z,51.49
2018-12-02T00:33:08.894Z,51.52
2018-12-02T00:33:40.476Z,51.59
2018-12-02T00:34:12.070Z,51.49
2018-12-02T00:34:43.670Z,51.57
2018-12-02T00:35:15.274Z,51.52
2018-12-02T00:35:46.875Z,51.46
2018-12-02T00:36:18.471Z,51.50
2018-12-02T00:36:50.066Z,51.59
2018-12-02T00:37:21.658Z,51.99
2018-12-02T00:37:53.273Z,51.71
2018-12-02T00:38:24.870Z,51.77
2018-12-02T00:38:56.478Z,51.85
2018-12-02T00:39:28.120Z,51.96
2018-12-02T00:39:59.714Z,52.09
2018-12-02T00:40:31.316Z,52.17
2018-12-02T00:41:02.900Z,52.12
2018-12-02T00:41:34.484Z,52.08
2018-12-02T00:42:06.092Z,52.12
2018-12-02T00:42:37.686Z,52.18
2018-12-02T00:43:09.292Z,52.20
2018-12-02T00:43:40.905Z,52.21
2018-12-02T00:44:12.492Z,52.17
2018-12-02T00:44:44.126Z,52.23
2018-12-02T00:45:15.736Z,52.26
2018-12-02T00:45:47.379Z,52.30
2018-12-02T00:46:19.032Z,52.25
2018-12-02T00:46:50.641Z,52.38
2018-12-02T00:47:22.238Z,52.52
2018-12-02T00:47:53.833Z,52.35
2018-12-02T00:48:25.416Z,52.49
2018-12-02T00:48:57.052Z,52.38
2018-12-02T00:49:28.637Z,52.37
2018-12-02T00:50:00.244Z,52.43
2018-12-02T00:50:31.847Z,52.47
2018-12-02T00:51:03.482Z,52.48
2018-12-02T00:51:35.077Z,52.52
2018-12-02T00:52:06.674Z,52.51
2018-12-02T00:52:38.266Z,52.39
2018-12-02T00:53:09.872Z,52.44
2018-12-02T00:53:41.486Z,52.55
2018-12-02T00:54:13.085Z,52.49
2018-12-02T00:54:44.691Z,52.60
2018-12-02T00:55:16.295Z,52.58
2018-12-02T00:55:47.900Z,52.59
2018-12-02T00:56:19.498Z,52.62
2018-12-02T00:56:51.080Z,52.47
2018-12-02T00:57:22.727Z,52.60
2018-12-02T00:57:54.336Z,52.63
2018-12-02T00:58:25.948Z,52.62
2018-12-02T00:58:57.599Z,52.60
2018-12-02T00:59:29.212Z,52.78
2018-12-02T01:00:00.813Z,52.76
2018-12-02T01:00:32.409Z,52.70
2018-12-02T01:01:03.996Z,52.72
2018-12-02T01:01:35.593Z,52.79
2018-12-02T01:02:07.176Z,52.78
2018-12-02T01:02:38.788Z,52.67
2018-12-02T01:03:10.384Z,52.58
2018-12-02T01:03:42.032Z,52.80
2018-12-02T01:04:13.643Z,52.83
2018-12-02T01:04:45.264Z,53.53
2018-12-02T01:05:16.873Z,53.37
2018-12-02T01:05:48.480Z,53.09
2018-12-02T01:06:20.068Z,52.73
2018-12-02T01:06:53.638Z,52.61
2018-12-02T01:07:23.331Z,52.38
2018-12-02T01:07:54.983Z,52.26
2018-12-02T01:08:26.582Z,52.15
2018-12-02T01:08:58.188Z,52.24
2018-12-02T01:09:29.796Z,51.96
2018-12-02T01:10:01.411Z,51.88
2018-12-02T01:10:33.006Z,51.92
2018-12-02T01:11:04.612Z,52.06
2018-12-02T01:11:36.245Z,52.08
2018-12-02T01:12:07.849Z,52.30
2018-12-02T01:12:39.447Z,52.26
2018-12-02T01:13:11.042Z,52.29
2018-12-02T01:13:42.634Z,52.28
2018-12-02T01:14:14.225Z,52.38
2018-12-02T01:14:45.818Z,52.31
2018-12-02T01:15:17.430Z,52.40
2018-12-02T01:15:49.016Z,52.43
2018-12-02T01:16:20.654Z,52.47
2018-12-02T01:16:52.232Z,52.40
2018-12-02T01:17:23.827Z,52.46
2018-12-02T01:17:55.426Z,52.59
2018-12-02T01:18:27.036Z,52.48
2018-12-02T01:18:58.643Z,52.47
2018-12-02T01:19:30.292Z,52.50
2018-12-02T01:20:01.886Z,52.56
2018-12-02T01:20:33.508Z,52.57
2018-12-02T01:21:05.105Z,52.54
2018-12-02T01:21:36.706Z,52.56
2018-12-02T01:22:08.318Z,52.56
2018-12-02T01:22:39.959Z,52.59
2018-12-02T01:23:11.567Z,52.55
2018-12-02T01:23:43.177Z,52.57
2018-12-02T01:24:14.765Z,52.73
2018-12-02T01:24:46.358Z,52.69
2018-12-02T01:25:17.954Z,52.62
2018-12-02T01:25:49.546Z,52.54
2018-12-02T01:26:21.138Z,52.74
2018-12-02T01:26:52.786Z,52.76
2018-12-02T01:27:24.383Z,52.92
2018-12-02T01:27:56.002Z,52.73
2018-12-02T01:28:27.602Z,52.73
2018-12-02T01:28:59.194Z,52.76
2018-12-02T01:29:30.793Z,52.76
2018-12-02T01:30:02.376Z,52.63
2018-12-02T01:30:33.985Z,52.66
2018-12-02T01:31:05.588Z,52.67
2018-12-02T01:31:37.196Z,52.84
2018-12-02T01:32:08.874Z,52.69
2018-12-02T01:32:40.467Z,52.63
2018-12-02T01:33:12.067Z,52.76
2018-12-02T01:33:43.676Z,52.91
2018-12-02T01:34:15.273Z,52.67
2018-12-02T01:34:46.882Z,52.77
2018-12-02T01:35:18.499Z,52.75
2018-12-02T01:35:50.131Z,52.77
2018-12-02T01:36:21.765Z,52.78
2018-12-02T01:36:53.408Z,52.78
2018-12-02T01:37:25.011Z,52.81
2018-12-02T01:37:56.606Z,52.98
2018-12-02T01:38:28.202Z,52.85
2018-12-02T01:38:59.807Z,52.79
2018-12-02T01:39:31.422Z,52.83
2018-12-02T01:40:03.018Z,52.85
2018-12-02T01:40:34.625Z,52.82
2018-12-02T01:41:06.231Z,52.78
2018-12-02T01:41:37.840Z,53.05
2018-12-02T01:42:09.478Z,52.94
2018-12-02T01:42:41.086Z,52.88
2018-12-02T01:43:12.682Z,52.98
2018-12-02T01:43:44.284Z,52.92
2018-12-02T01:44:15.879Z,52.92
2018-12-02T01:44:47.506Z,52.96
2018-12-02T01:45:19.098Z,52.96
2018-12-02T01:45:50.708Z,53.05
2018-12-02T01:46:22.316Z,53.01
2018-12-02T01:46:53.910Z,52.94
2018-12-02T01:47:25.511Z,52.89
2018-12-02T01:47:57.109Z,52.96
2018-12-02T01:48:28.739Z,53.01
2018-12-02T01:49:00.361Z,52.94
2018-12-02T01:49:31.953Z,53.01
2018-12-02T01:50:03.559Z,52.97
2018-12-02T01:50:35.158Z,53.11
2018-12-02T01:51:06.745Z,52.83
2018-12-02T01:51:38.337Z,53.13
2018-12-02T01:52:09.945Z,52.95
2018-12-02T01:52:41.582Z,52.89
2018-12-02T01:53:13.178Z,52.93
2018-12-02T01:53:44.770Z,52.98
2018-12-02T01:54:16.362Z,52.96
2018-12-02T01:54:47.948Z,52.92
2018-12-02T01:55:19.545Z,53.02
2018-12-02T01:55:51.397Z,53.20
2018-12-02T01:56:23.008Z,53.20
2018-12-02T01:56:54.635Z,53.32
2018-12-02T01:57:26.225Z,53.47
2018-12-02T01:57:57.818Z,53.50
2018-12-02T01:58:29.415Z,53.66
2018-12-02T01:59:01.006Z,53.84
2018-12-02T01:59:32.598Z,53.84
2018-12-02T02:00:04.194Z,53.77
2018-12-02T02:00:35.776Z,53.91
2018-12-02T02:01:07.370Z,53.98
2018-12-02T02:01:38.963Z,54.02
2018-12-02T02:02:10.590Z,54.22
2018-12-02T02:02:42.204Z,54.07
2018-12-02T02:03:13.804Z,54.05
2018-12-02T02:03:45.397Z,54.19
2018-12-02T02:04:16.996Z,54.19
2018-12-02T02:04:48.590Z,54.33
2018-12-02T02:05:20.186Z,54.28
2018-12-02T02:05:51.772Z,54.29
2018-12-02T02:06:23.384Z,54.26
2018-12-02T02:06:54.983Z,54.45
2018-12-02T02:07:26.618Z,54.65
2018-12-02T02:07:58.210Z,54.42
2018-12-02T02:08:29.860Z,54.42
2018-12-02T02:09:01.464Z,54.47
2018-12-02T02:09:33.066Z,54.50
2018-12-02T02:10:04.648Z,54.61
2018-12-02T02:10:36.241Z,54.59
2018-12-02T02:11:07.828Z,54.63
2018-12-02T02:11:39.436Z,54.72
2018-12-02T02:12:11.032Z,54.64
2018-12-02T02:12:42.626Z,54.68
2018-12-02T02:13:14.221Z,54.82
2018-12-02T02:13:45.823Z,54.83
2018-12-02T02:14:17.431Z,54.78
2018-12-02T02:14:49.039Z,54.91
2018-12-02T02:15:20.634Z,54.95
2018-12-02T02:15:52.248Z,54.99
2018-12-02T02:16:23.856Z,55.18
2018-12-02T02:16:55.440Z,55.14
2018-12-02T02:17:27.034Z,55.12
2018-12-02T02:17:58.684Z,55.14
2018-12-02T02:18:30.296Z,55.07
2018-12-02T02:19:01.884Z,55.21
2018-12-02T02:19:33.474Z,55.14
2018-12-02T02:20:05.070Z,55.21
2018-12-02T02:20:36.672Z,55.21
2018-12-02T02:21:08.284Z,55.10
2018-12-02T02:21:39.936Z,55.16
2018-12-02T02:22:11.521Z,55.14
2018-12-02T02:22:43.115Z,55.05
2018-12-02T02:23:14.792Z,54.87
2018-12-02T02:23:46.430Z,55.11
2018-12-02T02:24:18.012Z,54.88
2018-12-02T02:24:49.646Z,54.86
2018-12-02T02:25:21.865Z,54.70
2018-12-02T02:25:53.465Z,54.87
2018-12-02T02:26:25.076Z,54.79
2018-12-02T02:26:56.675Z,54.70
2018-12-02T02:27:28.289Z,54.85
2018-12-02T02:27:59.896Z,54.74
2018-12-02T02:28:31.503Z,54.76
2018-12-02T02:29:03.138Z,54.72
2018-12-02T02:29:34.720Z,54.64
2018-12-02T02:30:06.321Z,54.73
2018-12-02T02:30:37.915Z,54.67
2018-12-02T02:31:09.517Z,54.66
2018-12-02T02:31:41.125Z,54.88
2018-12-02T02:32:13.056Z,54.61
2018-12-02T02:32:44.649Z,54.87
2018-12-02T02:33:16.247Z,54.87
2018-12-02T02:33:47.842Z,54.64
2018-12-02T02:34:19.442Z,54.73
2018-12-02T02:34:51.029Z,54.73
2018-12-02T02:35:22.668Z,54.89
2018-12-02T02:35:54.293Z,54.61
2018-12-02T02:36:25.889Z,54.84
2018-12-02T02:36:57.486Z,54.67
2018-12-02T02:37:29.078Z,54.69
2018-12-02T02:38:00.671Z,54.66
2018-12-02T02:38:32.266Z,54.48
2018-12-02T02:39:03.861Z,54.58
2018-12-02T02:39:35.552Z,54.52
2018-12-02T02:40:07.151Z,54.87
2018-12-02T02:40:38.792Z,54.63
2018-12-02T02:41:10.400Z,54.68
2018-12-02T02:41:42.002Z,54.65
2018-12-02T02:42:13.615Z,54.67
2018-12-02T02:42:45.230Z,54.41
2018-12-02T02:43:16.829Z,54.49
2018-12-02T02:43:48.419Z,54.41
2018-12-02T02:44:20.031Z,54.41
2018-12-02T02:44:51.629Z,54.49
2018-12-02T02:45:23.240Z,54.83
2018-12-02T02:45:54.878Z,54.44
2018-12-02T02:46:26.474Z,54.73
2018-12-02T02:46:58.059Z,54.46
2018-12-02T02:47:29.670Z,54.47
2018-12-02T02:48:01.266Z,54.66
2018-12-02T02:48:32.862Z,54.38
2018-12-02T02:49:04.493Z,54.56
2018-12-02T02:49:36.098Z,54.42
2018-12-02T02:50:07.684Z,54.59
2018-12-02T02:50:39.283Z,54.30
2018-12-02T02:51:10.878Z,54.49
2018-12-02T02:51:42.474Z,54.54
2018-12-02T02:52:14.059Z,54.47
2018-12-02T02:52:45.670Z,54.52
2018-12-02T02:53:17.266Z,54.60
2018-12-02T02:53:48.917Z,54.47
2018-12-02T02:54:20.523Z,54.30
2018-12-02T02:54:52.118Z,54.35
2018-12-02T02:55:23.725Z,54.43
2018-12-02T02:55:55.321Z,54.52
2018-12-02T02:56:26.960Z,54.67
2018-12-02T02:56:58.554Z,54.41
2018-12-02T02:57:30.157Z,54.32
2018-12-02T02:58:01.762Z,54.57
2018-12-02T02:58:33.345Z,54.54
2018-12-02T02:59:04.952Z,54.55
2018-12-02T02:59:36.564Z,54.57
2018-12-02T03:00:08.232Z,54.73
2018-12-02T03:00:39.840Z,54.83
2018-12-02T03:01:11.424Z,54.90
2018-12-02T03:01:43.028Z,54.80
2018-12-02T03:02:14.636Z,54.72
2018-12-02T03:02:46.236Z,54.88
2018-12-02T03:03:17.836Z,54.87
2018-12-02T03:03:49.442Z,54.68
2018-12-02T03:04:21.033Z,54.91
2018-12-02T03:04:52.644Z,55.05
2018-12-02T03:05:24.242Z,54.99
2018-12-02T03:05:55.845Z,54.98
2018-12-02T03:06:27.449Z,55.01
2018-12-02T03:06:59.046Z,54.94
2018-12-02T03:07:30.645Z,54.87
2018-12-02T03:08:02.238Z,55.09
2018-12-02T03:08:33.849Z,55.46
2018-12-02T03:09:05.454Z,55.32
2018-12-02T03:09:37.049Z,55.34
2018-12-02T03:10:08.636Z,55.26
2018-12-02T03:10:40.244Z,55.18
2018-12-02T03:11:11.848Z,55.18
2018-12-02T03:11:43.442Z,55.22
2018-12-02T03:12:15.037Z,55.58
2018-12-02T03:12:46.638Z,55.40
2018-12-02T03:13:18.243Z,55.19
2018-12-02T03:13:49.847Z,55.60
2018-12-02T03:14:21.445Z,55.57
2018-12-02T03:14:53.039Z,55.78
2018-12-02T03:15:24.642Z,56.04
2018-12-02T03:15:56.242Z,55.46
2018-12-02T03:16:27.834Z,55.60
2018-12-02T03:16:59.440Z,55.73
2018-12-02T03:17:31.033Z,55.97
2018-12-02T03:18:02.683Z,55.86
2018-12-02T03:18:34.278Z,56.18
2018-12-02T03:19:05.875Z,55.78
2018-12-02T03:19:37.478Z,55.86
2018-12-02T03:20:09.080Z,55.87
2018-12-02T03:20:40.708Z,56.14
2018-12-02T03:21:12.302Z,56.02
2018-12-02T03:21:43.898Z,56.22
2018-12-02T03:22:15.509Z,56.11
2018-12-02T03:22:47.123Z,55.87
2018-12-02T03:23:18.775Z,56.05
2018-12-02T03:23:50.379Z,56.18
2018-12-02T03:24:21.974Z,56.15
2018-12-02T03:24:53.565Z,56.63
2018-12-02T03:25:25.157Z,56.71
2018-12-02T03:25:56.754Z,56.87
2018-12-02T03:26:28.349Z,56.78
2018-12-02T03:26:59.954Z,57.03
2018-12-02T03:27:31.545Z,56.91
2018-12-02T03:28:03.142Z,57.08
2018-12-02T03:28:34.778Z,56.81
2018-12-02T03:29:06.370Z,57.10
2018-12-02T03:29:37.952Z,56.90
2018-12-02T03:30:09.546Z,57.21
2018-12-02T03:30:41.189Z,57.45
2018-12-02T03:31:12.787Z,57.54
2018-12-02T03:31:44.385Z,57.32
2018-12-02T03:32:16.079Z,57.60
2018-12-02T03:32:47.704Z,57.52
2018-12-02T03:33:19.364Z,57.17
2018-12-02T03:33:50.961Z,57.02
2018-12-02T03:34:22.544Z,57.06
2018-12-02T03:34:54.134Z,56.93
2018-12-02T03:35:25.735Z,57.07
2018-12-02T03:35:57.337Z,57.43
2018-12-02T03:36:28.934Z,57.28
2018-12-02T03:37:00.516Z,57.57
2018-12-02T03:37:32.115Z,57.26
2018-12-02T03:38:03.724Z,57.00
2018-12-02T03:38:35.370Z,57.27
2018-12-02T03:39:06.956Z,57.08
2018-12-02T03:39:38.559Z,56.93
2018-12-02T03:40:10.162Z,57.59
2018-12-02T03:40:41.778Z,57.33
2018-12-02T03:41:13.360Z,57.42
2018-12-02T03:41:44.958Z,57.39
2018-12-02T03:42:16.560Z,57.09
2018-12-02T03:42:48.198Z,57.16
2018-12-02T03:43:19.807Z,57.26
2018-12-02T03:43:51.445Z,57.22
2018-12-02T03:44:23.046Z,57.25
2018-12-02T03:44:54.657Z,56.84
2018-12-02T03:45:26.269Z,57.16
2018-12-02T03:45:57.877Z,57.02
2018-12-02T03:46:29.484Z,57.10
2018-12-02T03:47:01.078Z,57.17
2018-12-02T03:47:32.680Z,56.99
2018-12-02T03:48:04.283Z,57.02
2018-12-02T03:48:35.882Z,57.18
2018-12-02T03:49:07.532Z,57.39
2018-12-02T03:49:39.354Z,57.83
2018-12-02T03:50:17.131Z,57.83
2018-12-02T03:50:42.653Z,57.93
2018-12-02T03:51:14.245Z,57.48
2018-12-02T03:51:45.838Z,57.34
2018-12-02T03:52:17.429Z,57.88
2018-12-02T03:52:49.037Z,57.64
2018-12-02T03:53:20.688Z,57.46
2018-12-02T03:53:52.288Z,57.72
2018-12-02T03:54:23.886Z,57.74
2018-12-02T03:54:55.512Z,57.50
2018-12-02T03:55:27.091Z,57.52
2018-12-02T03:55:58.682Z,57.63
2018-12-02T03:56:30.278Z,57.47
2018-12-02T03:57:01.997Z,57.48
2018-12-02T03:57:33.601Z,57.39
2018-12-02T03:58:05.217Z,57.41
2018-12-02T03:58:36.871Z,57.26
2018-12-02T03:59:08.470Z,57.19
2018-12-02T03:59:40.226Z,57.35
2018-12-02T04:00:11.818Z,57.10
2018-12-02T04:00:43.410Z,57.09
2018-12-02T04:01:15.006Z,57.36
2018-12-02T04:01:46.611Z,57.05
2018-12-02T04:02:18.220Z,57.03
2018-12-02T04:02:49.817Z,57.18
2018-12-02T04:03:21.432Z,57.05
2018-12-02T04:03:53.434Z,56.87
2018-12-02T04:04:25.029Z,56.93
2018-12-02T04:04:56.652Z,56.92
2018-12-02T04:05:28.246Z,57.02
2018-12-02T04:05:59.851Z,56.90
2018-12-02T04:06:31.446Z,56.97
2018-12-02T04:07:03.059Z,56.96
2018-12-02T04:07:34.656Z,56.95
2018-12-02T04:08:06.253Z,57.00
2018-12-02T04:08:37.846Z,57.32
2018-12-02T04:09:09.438Z,56.94
2018-12-02T04:09:41.034Z,57.18
2018-12-02T04:10:12.678Z,57.08
2018-12-02T04:10:44.273Z,56.99
2018-12-02T04:11:15.875Z,56.79
2018-12-02T04:11:47.461Z,56.70
2018-12-02T04:12:19.053Z,56.77
2018-12-02T04:12:50.679Z,56.99
2018-12-02T04:13:22.282Z,56.84
2018-12-02T04:13:53.930Z,56.66
2018-12-02T04:14:25.522Z,56.50
2018-12-02T04:14:57.137Z,56.74
2018-12-02T04:15:28.744Z,57.01
2018-12-02T04:16:00.328Z,56.99
2018-12-02T04:16:31.922Z,57.22
2018-12-02T04:17:03.519Z,57.07
2018-12-02T04:17:35.109Z,56.93
2018-12-02T04:18:06.717Z,56.98
2018-12-02T04:18:38.319Z,57.04
2018-12-02T04:19:09.918Z,57.13
2018-12-02T04:19:41.509Z,57.08
2018-12-02T04:20:13.112Z,57.07
2018-12-02T04:20:44.727Z,56.93
2018-12-02T04:21:16.326Z,56.81
2018-12-02T04:21:47.918Z,56.87
2018-12-02T04:22:19.514Z,56.84
2018-12-02T04:22:51.135Z,56.82
2018-12-02T04:23:22.770Z,56.91
2018-12-02T04:23:54.379Z,56.77
2018-12-02T04:24:25.979Z,56.96
2018-12-02T04:24:57.573Z,56.85
2018-12-02T04:25:29.173Z,56.75
2018-12-02T04:26:00.828Z,56.91
2018-12-02T04:26:32.436Z,56.84
2018-12-02T04:27:04.038Z,56.52
2018-12-02T04:27:35.640Z,56.86
2018-12-02T04:28:07.234Z,56.78
2018-12-02T04:28:38.827Z,56.80
2018-12-02T04:29:10.413Z,56.62
2018-12-02T04:29:42.022Z,56.85
2018-12-02T04:30:13.623Z,56.81
2018-12-02T04:30:45.251Z,56.63
2018-12-02T04:31:16.832Z,56.72
2018-12-02T04:31:48.430Z,56.67
2018-12-02T04:32:20.042Z,56.75
2018-12-02T04:32:51.657Z,56.59
2018-12-02T04:33:23.262Z,56.70
2018-12-02T04:33:54.854Z,56.63
2018-12-02T04:34:26.464Z,56.67
2018-12-02T04:34:58.076Z,56.45
2018-12-02T04:35:29.716Z,56.61
2018-12-02T04:36:01.320Z,56.67
2018-12-02T04:36:32.921Z,56.44
2018-12-02T04:37:04.532Z,56.61
2018-12-02T04:37:36.242Z,56.54
2018-12-02T04:38:07.854Z,56.48
2018-12-02T04:38:39.447Z,56.48
2018-12-02T04:39:11.055Z,56.63
2018-12-02T04:39:42.654Z,56.54
2018-12-02T04:40:14.246Z,56.30
2018-12-02T04:40:45.895Z,56.56
2018-12-02T04:41:17.494Z,56.36
2018-12-02T04:41:49.108Z,56.48
2018-12-02T04:42:20.703Z,56.56
2018-12-02T04:42:52.309Z,56.35
2018-12-02T04:43:23.911Z,56.43
2018-12-02T04:43:55.521Z,56.25
2018-12-02T04:44:27.114Z,56.58
2018-12-02T04:44:58.696Z,56.31
2018-12-02T04:45:30.287Z,56.58
2018-12-02T04:46:01.936Z,56.49
2018-12-02T04:46:33.524Z,56.47
2018-12-02T04:47:05.113Z,56.32
2018-12-02T04:47:36.705Z,56.17
2018-12-02T04:48:08.297Z,56.30
2018-12-02T04:48:39.890Z,56.31
2018-12-02T04:49:11.490Z,56.36
2018-12-02T04:49:43.082Z,56.40
2018-12-02T04:50:14.722Z,56.19
2018-12-02T04:50:46.393Z,56.20
2018-12-02T04:51:18.003Z,56.39
2018-12-02T04:51:49.615Z,56.38
2018-12-02T04:52:21.266Z,56.29
2018-12-02T04:52:52.876Z,56.27
2018-12-02T04:53:24.483Z,56.24
2018-12-02T04:53:56.077Z,56.27
2018-12-02T04:54:27.699Z,56.40
2018-12-02T04:54:59.313Z,56.20
2018-12-02T04:55:30.925Z,56.40
2018-12-02T04:56:02.534Z,56.32
2018-12-02T04:56:34.140Z,56.12
2018-12-02T04:57:05.738Z,56.46
2018-12-02T04:57:37.369Z,56.31
2018-12-02T04:58:08.971Z,56.55
2018-12-02T04:58:40.578Z,56.41
2018-12-02T04:59:12.187Z,56.38
2018-12-02T04:59:43.842Z,56.23
2018-12-02T05:00:15.456Z,56.39
2018-12-02T05:00:47.072Z,56.15
2018-12-02T05:01:18.683Z,56.21
2018-12-02T05:01:50.278Z,56.17
2018-12-02T05:02:21.885Z,56.21
2018-12-02T05:02:53.497Z,56.15
2018-12-02T05:03:25.109Z,56.14
2018-12-02T05:03:56.711Z,56.13
2018-12-02T05:04:28.300Z,56.08
2018-12-02T05:04:59.934Z,56.16
2018-12-02T05:05:31.554Z,56.11
2018-12-02T05:06:03.166Z,56.04
2018-12-02T05:06:34.816Z,56.09
2018-12-02T05:07:06.410Z,56.08
2018-12-02T05:07:37.997Z,55.94
2018-12-02T05:08:09.591Z,56.09
2018-12-02T05:08:41.196Z,55.98
2018-12-02T05:09:12.835Z,56.08
2018-12-02T05:09:44.445Z,56.05
2018-12-02T05:10:16.055Z,56.18
2018-12-02T05:10:47.664Z,56.09
2018-12-02T05:11:19.272Z,56.02
2018-12-02T05:11:50.867Z,56.05
2018-12-02T05:12:22.462Z,56.02
2018-12-02T05:12:54.059Z,55.97
2018-12-02T05:13:25.679Z,56.13
2018-12-02T05:13:57.284Z,56.13
2018-12-02T05:14:28.918Z,56.06
2018-12-02T05:15:00.517Z,56.13
2018-12-02T05:15:32.114Z,56.15
2018-12-02T05:16:03.705Z,56.06
2018-12-02T05:16:35.303Z,56.16
2018-12-02T05:17:06.898Z,56.25
2018-12-02T05:17:38.498Z,56.59
2018-12-02T05:18:10.113Z,56.19
2018-12-02T05:18:41.710Z,56.28
2018-12-02T05:19:13.324Z,56.47
2018-12-02T05:19:44.932Z,56.53
2018-12-02T05:20:16.526Z,56.53
2018-12-02T05:20:48.155Z,56.64
2018-12-02T05:21:19.793Z,56.55
2018-12-02T05:21:51.396Z,56.63
2018-12-02T05:22:23.044Z,56.60
2018-12-02T05:22:54.652Z,56.60
2018-12-02T05:23:26.245Z,56.51
2018-12-02T05:23:57.841Z,56.66
2018-12-02T05:24:29.423Z,56.72
2018-12-02T05:25:01.058Z,56.72
2018-12-02T05:25:32.708Z,56.70
2018-12-02T05:26:04.302Z,56.65
2018-12-02T05:26:35.903Z,56.73
2018-12-02T05:27:07.489Z,56.62
2018-12-02T05:27:39.082Z,56.72
2018-12-02T05:28:10.693Z,56.97
2018-12-02T05:28:42.305Z,56.95
2018-12-02T05:29:13.952Z,57.34
2018-12-02T05:29:45.549Z,57.13
2018-12-02T05:30:17.190Z,57.03
2018-12-02T05:30:48.784Z,57.47
2018-12-02T05:31:20.392Z,57.05
2018-12-02T05:31:51.998Z,57.17
2018-12-02T05:32:23.608Z,56.90
2018-12-02T05:32:55.206Z,57.04
2018-12-02T05:33:26.780Z,56.90
2018-12-02T05:33:58.385Z,57.11
2018-12-02T05:34:29.996Z,57.00
2018-12-02T05:35:01.610Z,57.31
2018-12-02T05:35:33.214Z,57.34
2018-12-02T05:36:04.850Z,57.48
2018-12-02T05:36:36.446Z,57.00
2018-12-02T05:37:08.052Z,57.32
2018-12-02T05:37:39.689Z,57.76
2018-12-02T05:38:11.282Z,57.97
2018-12-02T05:38:42.874Z,57.65
2018-12-02T05:39:14.468Z,57.60
2018-12-02T05:39:46.076Z,57.69
2018-12-02T05:40:17.676Z,57.67
2018-12-02T05:40:49.270Z,58.38
2018-12-02T05:41:20.867Z,58.55
2018-12-02T05:41:52.475Z,58.33
2018-12-02T05:42:24.074Z,58.10
2018-12-02T05:42:55.666Z,58.42
2018-12-02T05:43:27.279Z,58.00
2018-12-02T05:43:58.908Z,57.96
2018-12-02T05:44:30.504Z,58.00
2018-12-02T05:45:02.111Z,58.05
2018-12-02T05:45:33.731Z,58.06
2018-12-02T05:46:05.321Z,58.08
2018-12-02T05:46:36.909Z,57.78
2018-12-02T05:47:08.512Z,57.86
2018-12-02T05:47:40.151Z,57.76
2018-12-02T05:48:11.750Z,57.86
2018-12-02T05:48:43.392Z,57.84
2018-12-02T05:49:14.987Z,57.81
2018-12-02T05:49:46.568Z,57.70
2018-12-02T05:50:18.151Z,57.72
2018-12-02T05:50:49.741Z,57.76
2018-12-02T05:51:21.355Z,57.56
2018-12-02T05:51:52.964Z,57.81
2018-12-02T05:52:24.576Z,57.89
2018-12-02T05:52:56.184Z,57.72
2018-12-02T05:53:27.778Z,57.83
2018-12-02T05:53:59.380Z,57.97
2018-12-02T05:54:30.987Z,58.04
2018-12-02T05:55:02.625Z,57.92
2018-12-02T05:55:34.209Z,58.12
2018-12-02T05:56:05.806Z,58.13
2018-12-02T05:56:37.416Z,58.14
2018-12-02T05:57:09.028Z,58.17
2018-12-02T05:57:40.637Z,58.14
2018-12-02T05:58:12.233Z,58.14
2018-12-02T05:58:43.866Z,57.97
2018-12-02T05:59:15.472Z,58.17
2018-12-02T05:59:47.089Z,58.18
2018-12-02T06:00:18.696Z,58.10
2018-12-02T06:00:50.280Z,57.99
2018-12-02T06:01:21.888Z,58.04
2018-12-02T06:01:53.472Z,58.16
2018-12-02T06:02:25.081Z,57.99
2018-12-02T06:02:56.720Z,58.25
2018-12-02T06:03:28.304Z,58.06
2018-12-02T06:03:59.898Z,57.84
2018-12-02T06:04:31.490Z,57.61
2018-12-02T06:05:03.072Z,57.76
2018-12-02T06:05:34.673Z,57.62
2018-12-02T06:06:06.272Z,57.89
2018-12-02T06:06:37.857Z,57.93
2018-12-02T06:07:09.463Z,57.66
2018-12-02T06:07:41.059Z,57.60
2018-12-02T06:08:12.712Z,57.68
2018-12-02T06:08:44.305Z,57.71
2018-12-02T06:09:15.898Z,57.66
2018-12-02T06:09:47.542Z,57.45
2018-12-02T06:10:19.124Z,57.45
2018-12-02T06:10:50.737Z,57.39
2018-12-02T06:11:22.340Z,57.60
2018-12-02T06:11:53.948Z,57.59
2018-12-02T06:12:25.552Z,57.61
2018-12-02T06:12:57.155Z,57.41
2018-12-02T06:13:28.766Z,57.66
2018-12-02T06:14:00.376Z,57.52
2018-12-02T06:14:31.987Z,57.71
2018-12-02T06:15:03.911Z,57.67
2018-12-02T06:15:35.524Z,57.63
2018-12-02T06:16:07.118Z,57.51
2018-12-02T06:16:38.728Z,57.62
2018-12-02T06:17:10.321Z,57.73
2018-12-02T06:17:41.929Z,57.62
2018-12-02T06:18:13.511Z,57.60
2018-12-02T06:18:45.106Z,57.57
2018-12-02T06:19:16.688Z,57.60
2018-12-02T06:19:48.282Z,57.56
2018-12-02T06:20:19.882Z,57.55
2018-12-02T06:20:51.480Z,57.62
2018-12-02T06:21:23.061Z,57.60
2018-12-02T06:21:54.668Z,57.51
2018-12-02T06:22:26.300Z,57.44
2018-12-02T06:22:57.909Z,57.52
2018-12-02T06:23:29.498Z,57.49
2018-12-02T06:24:01.080Z,57.43
2018-12-02T06:24:32.690Z,57.39
2018-12-02T06:25:04.296Z,57.39
2018-12-02T06:25:35.893Z,57.20
2018-12-02T06:26:08.282Z,57.25
2018-12-02T06:26:39.159Z,57.41
2018-12-02T06:27:10.750Z,57.21
2018-12-02T06:27:42.341Z,57.29
2018-12-02T06:28:13.933Z,57.23
2018-12-02T06:28:45.565Z,57.21
2018-12-02T06:29:17.158Z,57.27
2018-12-02T06:29:48.769Z,57.33
2018-12-02T06:30:20.378Z,57.10
2018-12-02T06:30:51.988Z,57.16
2018-12-02T06:31:23.634Z,57.05
2018-12-02T06:31:55.230Z,57.30
2018-12-02T06:32:26.831Z,57.20
2018-12-02T06:32:58.440Z,57.07
2018-12-02T06:33:30.034Z,57.15
2018-12-02T06:34:01.640Z,57.07
2018-12-02T06:34:33.248Z,57.04
2018-12-02T06:35:04.831Z,56.97
2018-12-02T06:35:36.436Z,57.05
2018-12-02T06:36:08.044Z,56.99
2018-12-02T06:36:39.687Z,57.04
2018-12-02T06:37:11.272Z,56.93
2018-12-02T06:37:42.884Z,56.84
2018-12-02T06:38:14.469Z,56.88
2018-12-02T06:38:46.066Z,57.04
2018-12-02T06:39:17.662Z,56.88
2018-12-02T06:39:49.259Z,57.03
2018-12-02T06:40:20.858Z,56.82
2018-12-02T06:40:52.488Z,56.89
2018-12-02T06:41:24.102Z,56.86
2018-12-02T06:41:55.710Z,56.90
2018-12-02T06:42:27.345Z,57.04
2018-12-02T06:42:58.945Z,56.92
2018-12-02T06:43:30.552Z,56.89
2018-12-02T06:44:02.162Z,57.04
2018-12-02T06:44:33.754Z,56.97
2018-12-02T06:45:05.345Z,56.97
2018-12-02T06:45:36.942Z,56.92
2018-12-02T06:46:08.524Z,56.87
2018-12-02T06:46:40.112Z,56.91
2018-12-02T06:47:11.710Z,56.93